sensor_id;sensor_type;location;lat;lon;timestamp;P1;durP1;ratioP1;P2;durP2;ratioP2
30036;SDS011;36325;51.512;-0.382;2022-12-10T00:01:29;57.80;;;19.83;;
30036;SDS011;36325;51.512;-0.382;2022-12-10T00:03:57;45.30;;;18.67;;
30036;SDS011;36325;51.512;-0.382;2022-12-10T00:06:26;53.53;;;18.90;;
30036;SDS011;36325;51.512;-0.382;2022-12-10T00:08:55;46.03;;;18.25;;
30036;SDS011;36325;51.512;-0.382;2022-12-10T00:11:24;53.10;;;18.75;;
30036;SDS011;36325;51.512;-0.382;2022-12-10T00:13:52;56.80;;;19.55;;
30036;SDS011;36325;51.512;-0.382;2022-12-10T00:16:20;45.30;;;19.33;;
30036;SDS011;36325;51.512;-0.382;2022-12-10T00:21:22;48.83;;;17.35;;
30036;SDS011;36325;51.512;-0.382;2022-12-10T00:23:51;47.10;;;17.33;;
30036;SDS011;36325;51.512;-0.382;2022-12-10T00:26:29;49.65;;;18.83;;
30036;SDS011;36325;51.512;-0.382;2022-12-10T00:28:59;41.58;;;18.65;;
30036;SDS011;36325;51.512;-0.382;2022-12-10T00:31:29;50.47;;;19.80;;
30036;SDS011;36325;51.512;-0.382;2022-12-10T00:34:00;44.38;;;17.67;;
30036;SDS011;36325;51.512;-0.382;2022-12-10T00:36:33;46.93;;;18.43;;
30036;SDS011;36325;51.512;-0.382;2022-12-10T00:39:02;37.67;;;18.90;;
30036;SDS011;36325;51.512;-0.382;2022-12-10T00:41:30;42.28;;;18.60;;
30036;SDS011;36325;51.512;-0.382;2022-12-10T00:43:57;54.10;;;19.58;;
30036;SDS011;36325;51.512;-0.382;2022-12-10T00:46:25;46.58;;;17.65;;
30036;SDS011;36325;51.512;-0.382;2022-12-10T00:48:53;58.38;;;21.02;;
30036;SDS011;36325;51.512;-0.382;2022-12-10T00:51:21;54.40;;;19.77;;
30036;SDS011;36325;51.512;-0.382;2022-12-10T00:53:50;48.95;;;20.83;;
30036;SDS011;36325;51.512;-0.382;2022-12-10T00:56:20;52.13;;;21.42;;
30036;SDS011;36325;51.512;-0.382;2022-12-10T00:58:50;52.03;;;21.27;;
30036;SDS011;36325;51.512;-0.382;2022-12-10T01:01:19;52.13;;;21.98;;
30036;SDS011;36325;51.512;-0.382;2022-12-10T01:03:51;55.83;;;24.35;;
30036;SDS011;36325;51.512;-0.382;2022-12-10T01:06:31;51.55;;;22.65;;
30036;SDS011;36325;51.512;-0.382;2022-12-10T01:09:04;56.30;;;21.35;;
30036;SDS011;36325;51.512;-0.382;2022-12-10T01:11:34;48.08;;;17.77;;
30036;SDS011;36325;51.512;-0.382;2022-12-10T01:14:07;46.92;;;18.35;;
30036;SDS011;36325;51.512;-0.382;2022-12-10T01:16:36;55.47;;;18.80;;
30036;SDS011;36325;51.512;-0.382;2022-12-10T01:19:03;50.13;;;19.45;;
30036;SDS011;36325;51.512;-0.382;2022-12-10T01:21:33;46.83;;;18.10;;
30036;SDS011;36325;51.512;-0.382;2022-12-10T01:24:01;49.38;;;19.95;;
30036;SDS011;36325;51.512;-0.382;2022-12-10T01:26:30;50.90;;;19.65;;
30036;SDS011;36325;51.512;-0.382;2022-12-10T01:29:00;44.97;;;19.20;;
30036;SDS011;36325;51.512;-0.382;2022-12-10T01:31:33;54.50;;;21.25;;
30036;SDS011;36325;51.512;-0.382;2022-12-10T01:34:04;45.55;;;21.20;;
30036;SDS011;36325;51.512;-0.382;2022-12-10T01:36:37;57.90;;;22.30;;
30036;SDS011;36325;51.512;-0.382;2022-12-10T01:39:11;65.88;;;21.90;;
30036;SDS011;36325;51.512;-0.382;2022-12-10T01:41:44;49.78;;;21.42;;
30036;SDS011;36325;51.512;-0.382;2022-12-10T01:46:44;46.28;;;20.73;;
30036;SDS011;36325;51.512;-0.382;2022-12-10T01:49:15;68.63;;;21.63;;
30036;SDS011;36325;51.512;-0.382;2022-12-10T01:51:44;55.83;;;19.98;;
30036;SDS011;36325;51.512;-0.382;2022-12-10T01:54:15;49.53;;;20.00;;
30036;SDS011;36325;51.512;-0.382;2022-12-10T01:56:45;48.20;;;19.70;;
30036;SDS011;36325;51.512;-0.382;2022-12-10T01:59:25;52.70;;;20.85;;
30036;SDS011;36325;51.512;-0.382;2022-12-10T02:02:01;50.08;;;21.75;;
30036;SDS011;36325;51.512;-0.382;2022-12-10T02:10:33;53.38;;;20.27;;
30036;SDS011;36325;51.512;-0.382;2022-12-10T02:13:19;53.72;;;21.45;;
30036;SDS011;36325;51.512;-0.382;2022-12-10T02:18:37;60.42;;;22.10;;
30036;SDS011;36325;51.512;-0.382;2022-12-10T02:21:40;51.00;;;20.95;;
30036;SDS011;36325;51.512;-0.382;2022-12-10T02:24:12;63.05;;;22.42;;
30036;SDS011;36325;51.512;-0.382;2022-12-10T02:26:45;61.55;;;23.58;;
30036;SDS011;36325;51.512;-0.382;2022-12-10T02:29:19;59.50;;;23.58;;
30036;SDS011;36325;51.512;-0.382;2022-12-10T02:31:53;56.95;;;21.65;;
30036;SDS011;36325;51.512;-0.382;2022-12-10T02:34:26;53.13;;;21.75;;
30036;SDS011;36325;51.512;-0.382;2022-12-10T02:36:59;49.13;;;20.33;;
30036;SDS011;36325;51.512;-0.382;2022-12-10T02:39:32;52.63;;;20.00;;
30036;SDS011;36325;51.512;-0.382;2022-12-10T02:42:04;63.60;;;24.70;;
30036;SDS011;36325;51.512;-0.382;2022-12-10T02:44:35;59.90;;;21.73;;
30036;SDS011;36325;51.512;-0.382;2022-12-10T02:47:05;48.47;;;22.83;;
30036;SDS011;36325;51.512;-0.382;2022-12-10T02:49:37;55.13;;;22.45;;
30036;SDS011;36325;51.512;-0.382;2022-12-10T02:52:07;52.13;;;21.83;;
30036;SDS011;36325;51.512;-0.382;2022-12-10T03:08:34;61.42;;;22.17;;
30036;SDS011;36325;51.512;-0.382;2022-12-10T03:11:17;57.67;;;21.65;;
30036;SDS011;36325;51.512;-0.382;2022-12-10T03:16:39;60.70;;;22.83;;
30036;SDS011;36325;51.512;-0.382;2022-12-10T03:19:15;55.00;;;23.80;;
30036;SDS011;36325;51.512;-0.382;2022-12-10T03:21:46;49.97;;;21.20;;
30036;SDS011;36325;51.512;-0.382;2022-12-10T03:24:14;51.55;;;22.85;;
30036;SDS011;36325;51.512;-0.382;2022-12-10T03:26:43;69.65;;;22.95;;
30036;SDS011;36325;51.512;-0.382;2022-12-10T03:29:15;51.78;;;20.85;;
30036;SDS011;36325;51.512;-0.382;2022-12-10T03:34:22;55.80;;;21.40;;
30036;SDS011;36325;51.512;-0.382;2022-12-10T03:36:51;61.70;;;22.73;;
30036;SDS011;36325;51.512;-0.382;2022-12-10T03:39:21;55.95;;;21.88;;
30036;SDS011;36325;51.512;-0.382;2022-12-10T03:41:49;59.17;;;23.13;;
30036;SDS011;36325;51.512;-0.382;2022-12-10T03:44:27;59.00;;;23.60;;
30036;SDS011;36325;51.512;-0.382;2022-12-10T03:46:56;56.67;;;20.90;;
30036;SDS011;36325;51.512;-0.382;2022-12-10T03:49:23;56.75;;;21.77;;
30036;SDS011;36325;51.512;-0.382;2022-12-10T03:51:51;48.05;;;21.48;;
30036;SDS011;36325;51.512;-0.382;2022-12-10T03:54:19;56.25;;;22.75;;
30036;SDS011;36325;51.512;-0.382;2022-12-10T03:56:46;55.85;;;23.20;;
30036;SDS011;36325;51.512;-0.382;2022-12-10T03:59:14;49.25;;;21.75;;
30036;SDS011;36325;51.512;-0.382;2022-12-10T04:01:44;60.92;;;23.05;;
30036;SDS011;36325;51.512;-0.382;2022-12-10T04:04:11;56.05;;;22.10;;
30036;SDS011;36325;51.512;-0.382;2022-12-10T04:06:41;77.93;;;25.63;;
30036;SDS011;36325;51.512;-0.382;2022-12-10T04:09:12;69.13;;;26.92;;
30036;SDS011;36325;51.512;-0.382;2022-12-10T04:11:40;82.55;;;29.90;;
30036;SDS011;36325;51.512;-0.382;2022-12-10T04:14:09;74.72;;;27.20;;
30036;SDS011;36325;51.512;-0.382;2022-12-10T04:16:55;74.78;;;26.40;;
30036;SDS011;36325;51.512;-0.382;2022-12-10T04:19:23;73.90;;;27.90;;
30036;SDS011;36325;51.512;-0.382;2022-12-10T04:21:50;56.85;;;24.75;;
30036;SDS011;36325;51.512;-0.382;2022-12-10T04:24:36;56.80;;;22.80;;
30036;SDS011;36325;51.512;-0.382;2022-12-10T04:32:23;49.50;;;21.38;;
30036;SDS011;36325;51.512;-0.382;2022-12-10T04:34:52;47.85;;;21.65;;
30036;SDS011;36325;51.512;-0.382;2022-12-10T04:37:19;68.70;;;25.05;;
30036;SDS011;36325;51.512;-0.382;2022-12-10T04:39:49;86.43;;;26.75;;
30036;SDS011;36325;51.512;-0.382;2022-12-10T04:42:17;75.97;;;27.05;;
30036;SDS011;36325;51.512;-0.382;2022-12-10T04:44:45;67.45;;;28.88;;
30036;SDS011;36325;51.512;-0.382;2022-12-10T04:47:13;78.00;;;29.73;;
30036;SDS011;36325;51.512;-0.382;2022-12-10T04:49:41;88.57;;;31.40;;
30036;SDS011;36325;51.512;-0.382;2022-12-10T04:52:10;77.72;;;30.05;;
30036;SDS011;36325;51.512;-0.382;2022-12-10T04:54:39;84.53;;;30.33;;
30036;SDS011;36325;51.512;-0.382;2022-12-10T04:57:07;78.47;;;30.95;;
30036;SDS011;36325;51.512;-0.382;2022-12-10T04:59:36;71.65;;;27.98;;
30036;SDS011;36325;51.512;-0.382;2022-12-10T05:02:04;74.97;;;28.17;;
30036;SDS011;36325;51.512;-0.382;2022-12-10T05:04:33;96.88;;;27.70;;
30036;SDS011;36325;51.512;-0.382;2022-12-10T05:07:01;83.22;;;31.23;;
30036;SDS011;36325;51.512;-0.382;2022-12-10T05:09:28;64.38;;;27.65;;
30036;SDS011;36325;51.512;-0.382;2022-12-10T05:11:56;76.80;;;29.95;;
30036;SDS011;36325;51.512;-0.382;2022-12-10T05:14:23;68.53;;;29.40;;
30036;SDS011;36325;51.512;-0.382;2022-12-10T05:16:51;71.32;;;27.58;;
30036;SDS011;36325;51.512;-0.382;2022-12-10T05:19:21;79.57;;;30.33;;
30036;SDS011;36325;51.512;-0.382;2022-12-10T05:21:54;83.50;;;31.58;;
30036;SDS011;36325;51.512;-0.382;2022-12-10T05:24:48;80.53;;;30.70;;
30036;SDS011;36325;51.512;-0.382;2022-12-10T05:27:15;75.45;;;27.98;;
30036;SDS011;36325;51.512;-0.382;2022-12-10T05:29:43;74.05;;;27.92;;
30036;SDS011;36325;51.512;-0.382;2022-12-10T05:32:10;72.57;;;27.98;;
30036;SDS011;36325;51.512;-0.382;2022-12-10T05:34:38;73.63;;;27.83;;
30036;SDS011;36325;51.512;-0.382;2022-12-10T05:37:05;74.15;;;28.50;;
30036;SDS011;36325;51.512;-0.382;2022-12-10T05:39:33;80.22;;;28.27;;
30036;SDS011;36325;51.512;-0.382;2022-12-10T05:42:00;75.65;;;29.02;;
30036;SDS011;36325;51.512;-0.382;2022-12-10T05:44:28;77.55;;;29.15;;
30036;SDS011;36325;51.512;-0.382;2022-12-10T05:46:56;76.72;;;28.67;;
30036;SDS011;36325;51.512;-0.382;2022-12-10T05:49:23;69.93;;;28.20;;
30036;SDS011;36325;51.512;-0.382;2022-12-10T05:51:50;75.63;;;29.27;;
30036;SDS011;36325;51.512;-0.382;2022-12-10T05:54:21;81.82;;;30.67;;
30036;SDS011;36325;51.512;-0.382;2022-12-10T05:56:49;73.43;;;28.08;;
30036;SDS011;36325;51.512;-0.382;2022-12-10T05:59:16;64.18;;;26.30;;
30036;SDS011;36325;51.512;-0.382;2022-12-10T06:01:43;79.40;;;27.63;;
30036;SDS011;36325;51.512;-0.382;2022-12-10T06:04:11;74.63;;;25.73;;
30036;SDS011;36325;51.512;-0.382;2022-12-10T06:06:39;66.63;;;25.70;;
30036;SDS011;36325;51.512;-0.382;2022-12-10T06:09:09;66.05;;;26.65;;
30036;SDS011;36325;51.512;-0.382;2022-12-10T06:11:39;67.15;;;27.90;;
30036;SDS011;36325;51.512;-0.382;2022-12-10T06:14:08;71.65;;;27.83;;
30036;SDS011;36325;51.512;-0.382;2022-12-10T06:16:36;68.05;;;27.27;;
30036;SDS011;36325;51.512;-0.382;2022-12-10T06:19:06;70.20;;;26.88;;
30036;SDS011;36325;51.512;-0.382;2022-12-10T06:21:33;67.60;;;25.60;;
30036;SDS011;36325;51.512;-0.382;2022-12-10T06:24:01;75.05;;;28.15;;
30036;SDS011;36325;51.512;-0.382;2022-12-10T06:26:29;84.80;;;31.20;;
30036;SDS011;36325;51.512;-0.382;2022-12-10T06:28:57;69.55;;;28.10;;
30036;SDS011;36325;51.512;-0.382;2022-12-10T06:31:24;73.57;;;28.27;;
30036;SDS011;36325;51.512;-0.382;2022-12-10T06:33:52;99.78;;;34.58;;
30036;SDS011;36325;51.512;-0.382;2022-12-10T06:36:20;72.88;;;29.90;;
30036;SDS011;36325;51.512;-0.382;2022-12-10T06:38:49;77.68;;;29.13;;
30036;SDS011;36325;51.512;-0.382;2022-12-10T06:41:18;77.22;;;28.25;;
30036;SDS011;36325;51.512;-0.382;2022-12-10T06:43:47;61.67;;;24.60;;
30036;SDS011;36325;51.512;-0.382;2022-12-10T06:46:17;68.93;;;27.08;;
30036;SDS011;36325;51.512;-0.382;2022-12-10T06:48:45;67.78;;;27.50;;
30036;SDS011;36325;51.512;-0.382;2022-12-10T06:51:13;63.10;;;25.98;;
30036;SDS011;36325;51.512;-0.382;2022-12-10T06:53:41;60.47;;;26.52;;
30036;SDS011;36325;51.512;-0.382;2022-12-10T06:56:14;71.65;;;26.88;;
30036;SDS011;36325;51.512;-0.382;2022-12-10T06:58:43;67.20;;;26.23;;
30036;SDS011;36325;51.512;-0.382;2022-12-10T07:01:13;73.53;;;25.63;;
30036;SDS011;36325;51.512;-0.382;2022-12-10T07:03:43;59.33;;;24.40;;
30036;SDS011;36325;51.512;-0.382;2022-12-10T07:06:10;56.55;;;23.27;;
30036;SDS011;36325;51.512;-0.382;2022-12-10T07:08:39;64.05;;;26.52;;
30036;SDS011;36325;51.512;-0.382;2022-12-10T07:11:07;55.80;;;22.30;;
30036;SDS011;36325;51.512;-0.382;2022-12-10T07:13:36;55.75;;;24.13;;
30036;SDS011;36325;51.512;-0.382;2022-12-10T07:16:20;57.20;;;22.10;;
30036;SDS011;36325;51.512;-0.382;2022-12-10T07:18:50;71.10;;;29.42;;
30036;SDS011;36325;51.512;-0.382;2022-12-10T07:21:22;51.13;;;22.77;;
30036;SDS011;36325;51.512;-0.382;2022-12-10T07:23:55;54.22;;;23.58;;
30036;SDS011;36325;51.512;-0.382;2022-12-10T07:26:25;63.85;;;24.50;;
30036;SDS011;36325;51.512;-0.382;2022-12-10T07:28:54;63.40;;;25.13;;
30036;SDS011;36325;51.512;-0.382;2022-12-10T07:31:23;53.47;;;23.15;;
30036;SDS011;36325;51.512;-0.382;2022-12-10T07:33:50;60.75;;;25.05;;
30036;SDS011;36325;51.512;-0.382;2022-12-10T07:36:21;67.22;;;26.98;;
30036;SDS011;36325;51.512;-0.382;2022-12-10T07:38:49;55.63;;;24.83;;
30036;SDS011;36325;51.512;-0.382;2022-12-10T07:41:18;59.35;;;25.38;;
30036;SDS011;36325;51.512;-0.382;2022-12-10T07:46:21;54.63;;;23.25;;
30036;SDS011;36325;51.512;-0.382;2022-12-10T07:48:55;61.60;;;23.80;;
30036;SDS011;36325;51.512;-0.382;2022-12-10T07:51:26;55.78;;;22.25;;
30036;SDS011;36325;51.512;-0.382;2022-12-10T07:53:53;57.60;;;25.25;;
30036;SDS011;36325;51.512;-0.382;2022-12-10T07:56:22;63.95;;;24.00;;
30036;SDS011;36325;51.512;-0.382;2022-12-10T07:58:52;68.25;;;26.83;;
30036;SDS011;36325;51.512;-0.382;2022-12-10T08:01:21;62.58;;;26.85;;
30036;SDS011;36325;51.512;-0.382;2022-12-10T08:03:51;54.58;;;25.00;;
30036;SDS011;36325;51.512;-0.382;2022-12-10T08:06:19;62.30;;;24.25;;
30036;SDS011;36325;51.512;-0.382;2022-12-10T08:08:48;63.20;;;25.63;;
30036;SDS011;36325;51.512;-0.382;2022-12-10T08:11:16;60.05;;;24.42;;
30036;SDS011;36325;51.512;-0.382;2022-12-10T08:13:45;64.88;;;25.02;;
30036;SDS011;36325;51.512;-0.382;2022-12-10T08:16:19;80.05;;;27.83;;
30036;SDS011;36325;51.512;-0.382;2022-12-10T08:18:55;56.60;;;24.90;;
30036;SDS011;36325;51.512;-0.382;2022-12-10T08:21:25;74.60;;;26.17;;
30036;SDS011;36325;51.512;-0.382;2022-12-10T08:23:55;75.45;;;26.23;;
30036;SDS011;36325;51.512;-0.382;2022-12-10T08:26:23;75.93;;;30.77;;
30036;SDS011;36325;51.512;-0.382;2022-12-10T08:28:53;75.60;;;26.95;;
30036;SDS011;36325;51.512;-0.382;2022-12-10T08:31:21;78.63;;;29.50;;
30036;SDS011;36325;51.512;-0.382;2022-12-10T08:33:50;74.65;;;26.77;;
30036;SDS011;36325;51.512;-0.382;2022-12-10T08:36:18;74.22;;;26.45;;
30036;SDS011;36325;51.512;-0.382;2022-12-10T08:38:46;65.90;;;26.10;;
30036;SDS011;36325;51.512;-0.382;2022-12-10T08:41:15;77.60;;;27.52;;
30036;SDS011;36325;51.512;-0.382;2022-12-10T08:43:46;55.97;;;25.65;;
30036;SDS011;36325;51.512;-0.382;2022-12-10T08:46:14;66.82;;;24.48;;
30036;SDS011;36325;51.512;-0.382;2022-12-10T08:48:42;70.35;;;26.95;;
30036;SDS011;36325;51.512;-0.382;2022-12-10T08:51:13;91.22;;;25.80;;
30036;SDS011;36325;51.512;-0.382;2022-12-10T08:53:43;65.28;;;27.67;;
30036;SDS011;36325;51.512;-0.382;2022-12-10T08:56:16;75.43;;;30.70;;
30036;SDS011;36325;51.512;-0.382;2022-12-10T08:58:43;63.67;;;26.92;;
30036;SDS011;36325;51.512;-0.382;2022-12-10T09:01:12;59.60;;;26.38;;
30036;SDS011;36325;51.512;-0.382;2022-12-10T09:03:41;76.70;;;28.88;;
30036;SDS011;36325;51.512;-0.382;2022-12-10T09:06:12;70.82;;;26.98;;
30036;SDS011;36325;51.512;-0.382;2022-12-10T09:08:44;67.47;;;26.17;;
30036;SDS011;36325;51.512;-0.382;2022-12-10T09:11:16;58.75;;;25.23;;
30036;SDS011;36325;51.512;-0.382;2022-12-10T09:13:45;62.45;;;25.77;;
30036;SDS011;36325;51.512;-0.382;2022-12-10T09:16:13;54.28;;;23.65;;
30036;SDS011;36325;51.512;-0.382;2022-12-10T09:18:41;65.80;;;25.50;;
30036;SDS011;36325;51.512;-0.382;2022-12-10T09:21:09;66.72;;;26.27;;
30036;SDS011;36325;51.512;-0.382;2022-12-10T09:23:39;59.73;;;27.40;;
30036;SDS011;36325;51.512;-0.382;2022-12-10T09:26:13;63.38;;;23.15;;
30036;SDS011;36325;51.512;-0.382;2022-12-10T09:28:43;52.50;;;23.10;;
30036;SDS011;36325;51.512;-0.382;2022-12-10T09:31:11;54.15;;;24.42;;
30036;SDS011;36325;51.512;-0.382;2022-12-10T09:33:42;65.15;;;23.95;;
30036;SDS011;36325;51.512;-0.382;2022-12-10T09:36:11;59.58;;;23.55;;
30036;SDS011;36325;51.512;-0.382;2022-12-10T09:38:40;53.35;;;22.35;;
30036;SDS011;36325;51.512;-0.382;2022-12-10T09:49:11;52.92;;;23.63;;
30036;SDS011;36325;51.512;-0.382;2022-12-10T09:51:50;47.90;;;22.05;;
30036;SDS011;36325;51.512;-0.382;2022-12-10T09:54:24;59.33;;;23.98;;
30036;SDS011;36325;51.512;-0.382;2022-12-10T09:57:10;63.95;;;24.35;;
30036;SDS011;36325;51.512;-0.382;2022-12-10T09:59:49;51.88;;;23.25;;
30036;SDS011;36325;51.512;-0.382;2022-12-10T10:04:45;55.33;;;20.50;;
30036;SDS011;36325;51.512;-0.382;2022-12-10T10:07:19;46.22;;;20.10;;
30036;SDS011;36325;51.512;-0.382;2022-12-10T10:09:51;49.00;;;21.60;;
30036;SDS011;36325;51.512;-0.382;2022-12-10T10:12:27;44.33;;;22.05;;
30036;SDS011;36325;51.512;-0.382;2022-12-10T10:15:13;52.20;;;25.48;;
30036;SDS011;36325;51.512;-0.382;2022-12-10T10:17:47;50.72;;;23.70;;
30036;SDS011;36325;51.512;-0.382;2022-12-10T10:20:21;55.55;;;24.00;;
30036;SDS011;36325;51.512;-0.382;2022-12-10T10:22:49;43.40;;;17.15;;
30036;SDS011;36325;51.512;-0.382;2022-12-10T10:25:17;50.55;;;16.27;;
30036;SDS011;36325;51.512;-0.382;2022-12-10T10:27:45;55.60;;;20.27;;
30036;SDS011;36325;51.512;-0.382;2022-12-10T10:30:16;57.30;;;16.58;;
30036;SDS011;36325;51.512;-0.382;2022-12-10T10:32:48;53.72;;;17.17;;
30036;SDS011;36325;51.512;-0.382;2022-12-10T10:35:29;42.70;;;14.88;;
30036;SDS011;36325;51.512;-0.382;2022-12-10T10:38:02;57.95;;;14.05;;
30036;SDS011;36325;51.512;-0.382;2022-12-10T10:40:39;58.88;;;15.23;;
30036;SDS011;36325;51.512;-0.382;2022-12-10T10:43:20;32.63;;;13.10;;
30036;SDS011;36325;51.512;-0.382;2022-12-10T10:48:22;29.23;;;12.32;;
30036;SDS011;36325;51.512;-0.382;2022-12-10T10:50:53;26.42;;;13.55;;
30036;SDS011;36325;51.512;-0.382;2022-12-10T10:53:29;25.98;;;12.20;;
30036;SDS011;36325;51.512;-0.382;2022-12-10T10:55:58;28.05;;;11.25;;
30036;SDS011;36325;51.512;-0.382;2022-12-10T10:58:31;39.83;;;13.00;;
30036;SDS011;36325;51.512;-0.382;2022-12-10T11:01:04;64.30;;;14.57;;
30036;SDS011;36325;51.512;-0.382;2022-12-10T11:03:35;152.15;;;24.92;;
30036;SDS011;36325;51.512;-0.382;2022-12-10T11:06:12;86.88;;;16.73;;
30036;SDS011;36325;51.512;-0.382;2022-12-10T11:08:40;43.47;;;13.75;;
30036;SDS011;36325;51.512;-0.382;2022-12-10T11:11:20;72.68;;;19.23;;
30036;SDS011;36325;51.512;-0.382;2022-12-10T11:13:52;86.78;;;19.02;;
30036;SDS011;36325;51.512;-0.382;2022-12-10T11:16:21;39.20;;;13.77;;
30036;SDS011;36325;51.512;-0.382;2022-12-10T11:18:52;30.10;;;12.27;;
30036;SDS011;36325;51.512;-0.382;2022-12-10T11:21:29;32.78;;;11.73;;
30036;SDS011;36325;51.512;-0.382;2022-12-10T11:24:04;23.13;;;10.68;;
30036;SDS011;36325;51.512;-0.382;2022-12-10T11:37:32;17.38;;;8.45;;
30036;SDS011;36325;51.512;-0.382;2022-12-10T11:46:01;18.00;;;8.63;;
30036;SDS011;36325;51.512;-0.382;2022-12-10T11:48:39;12.90;;;7.65;;
30036;SDS011;36325;51.512;-0.382;2022-12-10T12:00:02;14.25;;;7.68;;
30036;SDS011;36325;51.512;-0.382;2022-12-10T12:05:38;17.35;;;7.95;;
30036;SDS011;36325;51.512;-0.382;2022-12-10T12:13:28;14.60;;;7.28;;
30036;SDS011;36325;51.512;-0.382;2022-12-10T12:16:13;10.10;;;7.05;;
30036;SDS011;36325;51.512;-0.382;2022-12-10T12:18:55;16.55;;;6.60;;
30036;SDS011;36325;51.512;-0.382;2022-12-10T12:23:56;13.68;;;6.55;;
30036;SDS011;36325;51.512;-0.382;2022-12-10T12:26:42;9.27;;;5.50;;
30036;SDS011;36325;51.512;-0.382;2022-12-10T12:29:39;12.48;;;5.65;;
30036;SDS011;36325;51.512;-0.382;2022-12-10T12:32:25;10.90;;;5.28;;
30036;SDS011;36325;51.512;-0.382;2022-12-10T12:34:56;12.50;;;5.60;;
30036;SDS011;36325;51.512;-0.382;2022-12-10T12:37:34;9.65;;;5.60;;
30036;SDS011;36325;51.512;-0.382;2022-12-10T12:41:10;10.20;;;5.20;;
30036;SDS011;36325;51.512;-0.382;2022-12-10T12:46:05;7.07;;;4.53;;
30036;SDS011;36325;51.512;-0.382;2022-12-10T12:48:42;8.40;;;4.72;;
30036;SDS011;36325;51.512;-0.382;2022-12-10T12:53:53;8.57;;;4.45;;
30036;SDS011;36325;51.512;-0.382;2022-12-10T13:03:00;7.97;;;5.22;;
30036;SDS011;36325;51.512;-0.382;2022-12-10T13:05:16;8.48;;;4.78;;
30036;SDS011;36325;51.512;-0.382;2022-12-10T13:10:45;9.05;;;4.93;;
30036;SDS011;36325;51.512;-0.382;2022-12-10T13:13:40;5.57;;;3.50;;
30036;SDS011;36325;51.512;-0.382;2022-12-10T13:42:59;8.13;;;4.32;;
30036;SDS011;36325;51.512;-0.382;2022-12-10T13:46:24;6.63;;;3.92;;
30036;SDS011;36325;51.512;-0.382;2022-12-10T13:48:58;8.18;;;3.50;;
30036;SDS011;36325;51.512;-0.382;2022-12-10T13:54:35;9.88;;;4.50;;
30036;SDS011;36325;51.512;-0.382;2022-12-10T13:57:30;8.13;;;4.32;;
30036;SDS011;36325;51.512;-0.382;2022-12-10T14:00:29;5.53;;;3.58;;
30036;SDS011;36325;51.512;-0.382;2022-12-10T14:03:22;8.73;;;3.63;;
30036;SDS011;36325;51.512;-0.382;2022-12-10T14:06:16;7.53;;;3.40;;
30036;SDS011;36325;51.512;-0.382;2022-12-10T14:11:31;7.95;;;3.63;;
30036;SDS011;36325;51.512;-0.382;2022-12-10T14:14:04;6.57;;;3.80;;
30036;SDS011;36325;51.512;-0.382;2022-12-10T14:16:38;7.40;;;3.88;;
30036;SDS011;36325;51.512;-0.382;2022-12-10T14:19:12;6.38;;;3.85;;
30036;SDS011;36325;51.512;-0.382;2022-12-10T14:21:41;5.40;;;3.60;;
30036;SDS011;36325;51.512;-0.382;2022-12-10T14:27:15;5.07;;;3.55;;
30036;SDS011;36325;51.512;-0.382;2022-12-10T14:29:50;7.88;;;3.50;;
30036;SDS011;36325;51.512;-0.382;2022-12-10T14:32:35;12.27;;;3.97;;
30036;SDS011;36325;51.512;-0.382;2022-12-10T14:35:05;7.75;;;3.90;;
30036;SDS011;36325;51.512;-0.382;2022-12-10T14:37:40;10.00;;;4.78;;
30036;SDS011;36325;51.512;-0.382;2022-12-10T14:40:13;7.72;;;4.07;;
30036;SDS011;36325;51.512;-0.382;2022-12-10T14:43:06;11.38;;;4.13;;
30036;SDS011;36325;51.512;-0.382;2022-12-10T14:46:20;9.57;;;4.72;;
30036;SDS011;36325;51.512;-0.382;2022-12-10T14:48:29;8.05;;;4.00;;
30036;SDS011;36325;51.512;-0.382;2022-12-10T14:51:02;6.60;;;3.90;;
30036;SDS011;36325;51.512;-0.382;2022-12-10T14:53:32;7.35;;;4.43;;
30036;SDS011;36325;51.512;-0.382;2022-12-10T14:56:01;8.40;;;4.28;;
30036;SDS011;36325;51.512;-0.382;2022-12-10T15:01:41;5.45;;;3.22;;
30036;SDS011;36325;51.512;-0.382;2022-12-10T15:04:05;8.32;;;3.90;;
30036;SDS011;36325;51.512;-0.382;2022-12-10T15:06:39;10.52;;;4.00;;
30036;SDS011;36325;51.512;-0.382;2022-12-10T15:09:10;8.32;;;4.70;;
30036;SDS011;36325;51.512;-0.382;2022-12-10T15:11:41;7.72;;;4.60;;
30036;SDS011;36325;51.512;-0.382;2022-12-10T15:14:17;12.15;;;5.70;;
30036;SDS011;36325;51.512;-0.382;2022-12-10T15:16:49;7.88;;;4.63;;
30036;SDS011;36325;51.512;-0.382;2022-12-10T15:19:21;13.10;;;7.07;;
30036;SDS011;36325;51.512;-0.382;2022-12-10T15:21:49;7.40;;;5.03;;
30036;SDS011;36325;51.512;-0.382;2022-12-10T15:24:28;9.20;;;5.00;;
30036;SDS011;36325;51.512;-0.382;2022-12-10T15:27:14;9.50;;;4.65;;
30036;SDS011;36325;51.512;-0.382;2022-12-10T15:29:46;8.77;;;5.00;;
30036;SDS011;36325;51.512;-0.382;2022-12-10T15:32:15;11.75;;;5.38;;
30036;SDS011;36325;51.512;-0.382;2022-12-10T15:35:04;8.88;;;4.70;;
30036;SDS011;36325;51.512;-0.382;2022-12-10T15:37:43;13.93;;;5.68;;
30036;SDS011;36325;51.512;-0.382;2022-12-10T15:40:27;17.30;;;5.60;;
30036;SDS011;36325;51.512;-0.382;2022-12-10T15:43:10;13.45;;;6.65;;
30036;SDS011;36325;51.512;-0.382;2022-12-10T15:45:52;14.25;;;7.18;;
30036;SDS011;36325;51.512;-0.382;2022-12-10T15:48:19;13.57;;;6.07;;
30036;SDS011;36325;51.512;-0.382;2022-12-10T15:50:47;13.52;;;6.25;;
30036;SDS011;36325;51.512;-0.382;2022-12-10T15:53:24;12.80;;;7.03;;
30036;SDS011;36325;51.512;-0.382;2022-12-10T15:56:02;21.30;;;11.55;;
30036;SDS011;36325;51.512;-0.382;2022-12-10T15:58:29;18.60;;;11.43;;
30036;SDS011;36325;51.512;-0.382;2022-12-10T16:00:57;20.88;;;12.10;;
30036;SDS011;36325;51.512;-0.382;2022-12-10T16:03:24;28.55;;;12.93;;
30036;SDS011;36325;51.512;-0.382;2022-12-10T16:05:54;18.33;;;11.57;;
30036;SDS011;36325;51.512;-0.382;2022-12-10T16:08:23;21.67;;;12.13;;
30036;SDS011;36325;51.512;-0.382;2022-12-10T16:10:52;18.70;;;9.82;;
30036;SDS011;36325;51.512;-0.382;2022-12-10T16:13:22;18.48;;;8.65;;
30036;SDS011;36325;51.512;-0.382;2022-12-10T16:15:59;21.75;;;11.10;;
30036;SDS011;36325;51.512;-0.382;2022-12-10T16:18:30;30.05;;;13.93;;
30036;SDS011;36325;51.512;-0.382;2022-12-10T16:21:00;33.08;;;12.13;;
30036;SDS011;36325;51.512;-0.382;2022-12-10T16:23:27;26.40;;;12.45;;
30036;SDS011;36325;51.512;-0.382;2022-12-10T16:25:54;33.97;;;12.52;;
30036;SDS011;36325;51.512;-0.382;2022-12-10T16:28:22;21.48;;;9.82;;
30036;SDS011;36325;51.512;-0.382;2022-12-10T16:31:04;17.15;;;8.88;;
30036;SDS011;36325;51.512;-0.382;2022-12-10T16:33:31;20.33;;;9.13;;
30036;SDS011;36325;51.512;-0.382;2022-12-10T16:35:59;21.70;;;10.23;;
30036;SDS011;36325;51.512;-0.382;2022-12-10T16:38:38;18.70;;;11.00;;
30036;SDS011;36325;51.512;-0.382;2022-12-10T16:41:16;27.17;;;10.93;;
30036;SDS011;36325;51.512;-0.382;2022-12-10T16:43:54;22.52;;;11.20;;
30036;SDS011;36325;51.512;-0.382;2022-12-10T16:46:22;23.73;;;11.80;;
30036;SDS011;36325;51.512;-0.382;2022-12-10T16:48:50;27.15;;;11.90;;
30036;SDS011;36325;51.512;-0.382;2022-12-10T16:51:20;21.67;;;11.77;;
30036;SDS011;36325;51.512;-0.382;2022-12-10T16:53:52;18.70;;;10.68;;
30036;SDS011;36325;51.512;-0.382;2022-12-10T16:56:20;34.00;;;13.30;;
30036;SDS011;36325;51.512;-0.382;2022-12-10T16:58:48;30.70;;;13.15;;
30036;SDS011;36325;51.512;-0.382;2022-12-10T17:01:18;55.00;;;23.08;;
30036;SDS011;36325;51.512;-0.382;2022-12-10T17:03:48;42.35;;;19.27;;
30036;SDS011;36325;51.512;-0.382;2022-12-10T17:06:17;62.40;;;26.73;;